Time;durP1;ratioP1;P1;durP2;ratioP2;P2;SDS_P1;SDS_P2;PMS_P1;PMS_P2;Temp;Humidity;BMP_temperature;BMP_pressure;BME280_temperature;BME280_humidity;BME280_pressure;Samples;Min_cycle;Max_cycle;Signal;HPM_P1;HPM_P2
2022/02/03 00:00:42;;;;;;;7.90;3.85;;;4.20;99.90;;;;;;5048255;28;20014;-79
2022/02/03 00:03:16;;;;;;;6.30;3.42;;;4.20;99.90;;;;;;5037740;28;20052;-79
2022/02/03 00:11:20;;;;;;;4.70;2.97;;;4.20;99.90;;;;;;5036192;28;20029;-79
2022/02/03 00:25:06;;;;;;;6.30;3.40;;;4.20;99.90;;;;;;5014735;28;20297;-79
2022/02/03 00:51:24;;;;;;;5.88;3.63;;;4.20;99.90;;;;;;4995698;28;20051;-78
2022/02/03 00:53:49;;;;;;;11.05;4.65;;;4.20;99.90;;;;;;4996592;28;20507;-79
2022/02/03 00:56:20;;;;;;;9.35;4.75;;;4.30;99.90;;;;;;5002477;28;20037;-79
2022/02/03 00:58:52;;;;;;;8.63;3.97;;;4.20;99.90;;;;;;5014044;28;20050;-79
2022/02/03 01:01:19;;;;;;;7.70;4.30;;;4.30;99.90;;;;;;4995972;28;20018;-78
2022/02/03 01:03:51;;;;;;;7.70;3.60;;;4.20;99.90;;;;;;4997837;28;20034;-78
2022/02/03 01:06:19;;;;;;;9.52;4.43;;;4.20;99.90;;;;;;4994786;28;20026;-78
2022/02/03 01:08:47;;;;;;;7.20;3.63;;;4.20;99.90;;;;;;4995037;28;20506;-79
2022/02/03 01:11:22;;;;;;;4.47;3.38;;;4.20;99.90;;;;;;5005874;28;20065;-78
2022/02/03 01:35:05;;;;;;;1.95;1.70;;;4.00;99.90;;;;;;5014847;28;20036;-78
2022/02/03 01:37:51;;;;;;;2.83;2.40;;;4.00;99.90;;;;;;5014815;28;20038;-79
2022/02/03 01:43:21;;;;;;;3.60;1.88;;;4.00;99.90;;;;;;5015134;28;20060;-79
2022/02/03 01:53:34;;;;;;;7.85;3.03;;;4.10;99.90;;;;;;5034978;28;20075;-79
2022/02/03 01:56:10;;;;;;;6.10;3.03;;;4.10;99.90;;;;;;5035128;28;20040;-79
2022/02/03 01:58:45;;;;;;;8.30;4.28;;;4.10;99.90;;;;;;5020532;28;20022;-77
2022/02/03 02:01:21;;;;;;;6.45;3.65;;;4.20;99.90;;;;;;5014581;28;20030;-78
2022/02/03 02:03:55;;;;;;;5.60;3.53;;;4.30;99.90;;;;;;5008384;28;20024;-78
2022/02/03 02:06:41;;;;;;;7.88;3.92;;;4.30;99.90;;;;;;5015253;28;20557;-78
2022/02/03 02:09:56;;;;;;;13.02;6.68;;;4.40;99.90;;;;;;5014293;28;20050;-79
2022/02/03 02:13:10;;;;;;;13.00;5.85;;;4.40;99.90;;;;;;5014753;28;20022;-78
2022/02/03 02:16:13;;;;;;;10.85;5.45;;;4.40;99.90;;;;;;5022420;28;20025;-78
2022/02/03 02:38:11;;;;;;;8.10;4.47;;;4.40;99.90;;;;;;5017824;28;20064;-78
2022/02/03 02:43:45;;;;;;;10.63;4.75;;;4.40;99.90;;;;;;5004599;28;20121;-78
2022/02/03 02:46:46;;;;;;;6.40;3.90;;;4.40;99.90;;;;;;5019665;28;20602;-80
2022/02/03 02:49:26;;;;;;;7.45;3.38;;;4.40;99.90;;;;;;5009641;28;20038;-80
2022/02/03 02:52:06;;;;;;;10.95;4.88;;;4.40;99.90;;;;;;5031242;28;20028;-79
2022/02/03 03:30:58;;;;;;;9.75;5.22;;;4.60;99.90;;;;;;5017009;28;20084;-77
2022/02/03 03:33:50;;;;;;;11.55;4.65;;;4.60;99.90;;;;;;5016577;28;20022;-78
2022/02/03 03:36:19;;;;;;;8.77;5.20;;;4.70;99.90;;;;;;5014311;28;20030;-79
2022/02/03 03:38:48;;;;;;;6.25;4.30;;;4.70;99.90;;;;;;5015471;28;20036;-79
2022/02/03 03:41:18;;;;;;;15.40;5.70;;;4.70;99.90;;;;;;5015885;28;20022;-79
2022/02/03 03:43:58;;;;;;;9.70;5.40;;;4.70;99.90;;;;;;5014599;28;20099;-78
2022/02/03 03:46:35;;;;;;;8.70;5.18;;;4.70;99.90;;;;;;5023867;28;20037;-78
2022/02/03 03:49:08;;;;;;;10.65;5.07;;;4.70;99.90;;;;;;5015640;28;20025;-79
2022/02/03 03:51:48;;;;;;;9.82;4.97;;;4.80;99.90;;;;;;5014872;28;20474;-79
2022/02/03 03:54:33;;;;;;;10.43;5.00;;;4.80;99.90;;;;;;5015839;28;20037;-79
2022/02/03 03:57:32;;;;;;;6.95;3.92;;;4.80;99.90;;;;;;5014017;28;20040;-79
2022/02/03 04:35:01;;;;;;;6.57;3.95;;;4.80;99.90;;;;;;5015811;28;20036;-77
2022/02/03 04:40:34;;;;;;;3.30;2.60;;;4.80;99.90;;;;;;5022785;28;20057;-79
2022/02/03 04:43:55;;;;;;;4.68;2.58;;;4.70;99.90;;;;;;5004065;28;20037;-78
2022/02/03 04:53:32;;;;;;;3.05;2.67;;;4.80;99.90;;;;;;4999786;28;20073;-78
2022/02/03 04:56:28;;;;;;;5.18;2.55;;;4.80;99.90;;;;;;5003409;28;20042;-78
2022/02/03 05:05:30;;;;;;;4.03;2.28;;;4.70;99.90;;;;;;4995042;28;20080;-78
2022/02/03 05:44:48;;;;;;;1.52;1.42;;;4.80;99.90;;;;;;5017752;28;20041;-78
2022/02/03 05:47:37;;;;;;;2.55;1.58;;;4.80;99.90;;;;;;5029306;28;20013;-79
2022/02/03 05:54:43;;;;;;;1.67;1.42;;;4.90;99.90;;;;;;5036368;28;20032;-78
2022/02/03 06:09:01;;;;;;;1.00;0.90;;;4.90;99.90;;;;;;5017638;28;20073;-79
2022/02/03 06:14:25;;;;;;;1.50;1.13;;;5.00;99.90;;;;;;5017870;28;20128;-79
2022/02/03 06:22:41;;;;;;;1.33;1.23;;;5.00;99.90;;;;;;5037938;28;20072;-78
2022/02/03 06:27:41;;;;;;;0.90;0.90;;;5.10;99.90;;;;;;5038160;28;20022;-80
2022/02/03 06:30:09;;;;;;;4.47;1.40;;;5.10;99.90;;;;;;5038594;28;20379;-79
2022/02/03 06:32:41;;;;;;;1.20;1.10;;;5.10;99.90;;;;;;5039585;28;20036;-81
2022/02/03 06:35:08;;;;;;;1.17;1.02;;;5.10;99.90;;;;;;5039182;28;20032;-80
2022/02/03 06:37:35;;;;;;;2.42;1.55;;;5.10;99.90;;;;;;5041224;28;20466;-79
2022/02/03 06:40:02;;;;;;;4.05;1.80;;;5.10;99.90;;;;;;5030135;28;20449;-79
2022/02/03 06:42:28;;;;;;;2.70;1.92;;;5.10;99.90;;;;;;5017525;28;20053;-78
2022/02/03 06:45:04;;;;;;;2.47;1.73;;;5.10;99.90;;;;;;5021206;28;20025;-79
2022/02/03 06:50:27;;;;;;;2.13;1.50;;;5.10;99.90;;;;;;5001982;28;20048;-80
2022/02/03 06:55:39;;;;;;;2.72;1.55;;;5.10;99.90;;;;;;5018904;28;20077;-80
2022/02/03 07:00:44;;;;;;;2.25;1.35;;;5.20;99.90;;;;;;5029680;28;20015;-80
2022/02/03 07:03:18;;;;;;;3.23;1.50;;;5.30;99.90;;;;;;5018657;28;20018;-80
2022/02/03 07:05:43;;;;;;;2.90;1.38;;;5.30;99.90;;;;;;4997852;28;20100;-78
2022/02/03 07:08:15;;;;;;;2.40;1.45;;;5.30;99.90;;;;;;4996367;28;20022;-78
2022/02/03 07:10:41;;;;;;;1.50;1.27;;;5.30;99.90;;;;;;4997707;28;20027;-79
2022/02/03 07:13:08;;;;;;;2.17;1.65;;;5.30;99.90;;;;;;4996184;28;20026;-78
2022/02/03 07:15:34;;;;;;;3.22;1.67;;;5.30;99.90;;;;;;5023323;28;20028;-78
2022/02/03 07:18:00;;;;;;;1.60;1.33;;;5.40;99.90;;;;;;5030630;28;20065;-79
2022/02/03 07:20:29;;;;;;;1.80;1.70;;;5.50;99.90;;;;;;5036176;28;20022;-79
2022/02/03 07:22:55;;;;;;;1.85;1.50;;;5.50;99.90;;;;;;5036597;28;20068;-79
2022/02/03 07:25:21;;;;;;;1.45;1.35;;;5.60;99.90;;;;;;5036485;28;20029;-79
2022/02/03 07:27:47;;;;;;;1.75;1.50;;;5.60;99.90;;;;;;5034731;28;20025;-78
2022/02/03 07:30:13;;;;;;;3.80;1.52;;;5.70;99.90;;;;;;5027421;28;20027;-79
2022/02/03 07:32:39;;;;;;;2.03;1.40;;;5.70;99.90;;;;;;5017393;28;20022;-79
2022/02/03 07:35:05;;;;;;;2.03;1.60;;;5.70;99.90;;;;;;5011658;28;20070;-79
2022/02/03 07:37:31;;;;;;;1.88;1.50;;;5.70;99.90;;;;;;5017258;28;20042;-78
2022/02/03 07:39:58;;;;;;;2.38;1.15;;;5.80;99.90;;;;;;5026832;28;20040;-77
2022/02/03 07:42:24;;;;;;;2.55;1.38;;;5.90;99.90;;;;;;5020451;28;20541;-77
2022/02/03 07:44:50;;;;;;;0.90;0.90;;;5.80;99.90;;;;;;5024566;28;20126;-77
2022/02/03 07:47:16;;;;;;;1.25;1.15;;;5.90;99.90;;;;;;5029344;28;20057;-77
2022/02/03 07:49:43;;;;;;;1.75;1.25;;;5.90;99.90;;;;;;5018074;28;20022;-78
2022/02/03 07:52:09;;;;;;;3.42;1.33;;;5.90;99.90;;;;;;5021670;28;20028;-79
2022/02/03 07:54:36;;;;;;;1.40;1.27;;;5.90;99.90;;;;;;5020285;28;20018;-78
2022/02/03 07:57:02;;;;;;;1.20;1.10;;;6.00;99.90;;;;;;5018918;28;20036;-78
2022/02/03 07:59:29;;;;;;;1.17;1.08;;;6.00;99.90;;;;;;5016796;28;20087;-80
2022/02/03 08:01:54;;;;;;;1.20;1.10;;;6.00;99.90;;;;;;5016277;28;20030;-78
2022/02/03 08:04:25;;;;;;;1.20;1.10;;;6.20;99.90;;;;;;5024544;28;20025;-79
2022/02/03 08:06:51;;;;;;;1.70;1.60;;;6.20;99.90;;;;;;5031287;28;20037;-79
2022/02/03 08:11:47;;;;;;;1.55;1.45;;;6.40;99.90;;;;;;5018797;28;20084;-80
2022/02/03 08:14:27;;;;;;;2.03;1.42;;;6.50;99.90;;;;;;5019285;28;20022;-78
2022/02/03 08:17:02;;;;;;;2.03;1.83;;;6.60;99.90;;;;;;5017550;28;20022;-77
2022/02/03 08:19:40;;;;;;;2.10;1.60;;;6.70;99.90;;;;;;5015099;28;20468;-78
2022/02/03 08:22:12;;;;;;;1.67;1.50;;;6.80;99.90;;;;;;5015691;28;20018;-79
2022/02/03 08:24:54;;;;;;;2.55;1.52;;;6.90;99.90;;;;;;5006740;28;20036;-78
2022/02/03 08:32:23;;;;;;;2.20;2.00;;;7.10;99.90;;;;;;5015446;28;20018;-80
2022/02/03 08:37:28;;;;;;;3.00;1.75;;;7.20;99.90;;;;;;5015585;28;20470;-79
2022/02/03 08:40:09;;;;;;;2.63;1.77;;;7.20;99.90;;;;;;5018324;28;20057;-79
2022/02/03 08:42:35;;;;;;;4.05;2.17;;;7.30;99.90;;;;;;5018259;28;20072;-79
2022/02/03 08:45:01;;;;;;;2.60;2.10;;;7.50;99.90;;;;;;5015702;28;20022;-78
2022/02/03 08:47:27;;;;;;;3.22;2.30;;;7.70;99.90;;;;;;5026459;28;20022;-79
2022/02/03 08:49:53;;;;;;;3.58;2.10;;;7.70;99.90;;;;;;5035589;28;20097;-80
2022/02/03 08:52:21;;;;;;;4.55;2.00;;;7.80;99.90;;;;;;5037061;28;20032;-80
2022/02/03 08:57:36;;;;;;;2.60;2.05;;;7.80;99.90;;;;;;5037171;28;20062;-79
2022/02/03 09:59:47;;;;;;;3.40;1.77;;;10.00;99.90;;;;;;5018915;28;20038;-81
2022/02/03 10:02:19;;;;;;;2.00;1.15;;;9.90;99.90;;;;;;5027727;28;20076;-80
2022/02/03 10:04:49;;;;;;;2.20;1.50;;;10.00;99.90;;;;;;5027683;28;20030;-81
2022/02/03 10:07:24;;;;;;;1.55;1.45;;;10.00;99.90;;;;;;5028427;28;20021;-80
2022/02/03 10:09:52;;;;;;;1.10;1.00;;;10.00;99.90;;;;;;5024915;28;20022;-80
2022/02/03 10:12:27;;;;;;;0.90;0.90;;;10.10;99.90;;;;;;5026616;28;20088;-80
2022/02/03 10:14:55;;;;;;;1.48;1.30;;;10.00;99.90;;;;;;5032969;28;20108;-80
2022/02/03 10:17:51;;;;;;;1.40;1.30;;;9.80;99.90;;;;;;5039076;28;20446;-79
2022/02/03 10:20:21;;;;;;;1.30;0.98;;;9.70;99.90;;;;;;5048464;28;20025;-80
2022/02/03 10:22:52;;;;;;;1.20;0.90;;;9.80;99.90;;;;;;5047246;28;20045;-79
2022/02/03 10:25:35;;;;;;;1.30;1.20;;;10.00;99.90;;;;;;5046006;28;20010;-81
2022/02/03 10:28:05;;;;;;;0.98;0.98;;;9.90;99.90;;;;;;5028744;28;20030;-79
2022/02/03 10:30:43;;;;;;;0.93;0.93;;;9.90;99.90;;;;;;5020637;28;20026;-80
2022/02/03 10:33:09;;;;;;;1.05;1.00;;;10.20;99.90;;;;;;5018018;28;20063;-81
2022/02/03 10:35:47;;;;;;;1.00;0.90;;;10.40;99.90;;;;;;5025505;28;20021;-81
2022/02/03 10:49:03;;;;;;;1.35;0.90;;;11.50;99.90;;;;;;5047135;28;20075;-79
2022/02/03 11:02:24;;;;;;;0.60;0.60;;;11.80;99.90;;;;;;5045154;28;20036;-78
2022/02/03 11:10:27;;;;;;;0.85;0.70;;;11.30;99.90;;;;;;5046629;28;20103;-79
2022/02/03 11:12:54;;;;;;;0.40;0.40;;;11.10;98.70;;;;;;5044493;28;20312;-81
2022/02/03 11:15:23;;;;;;;1.02;0.90;;;11.00;98.90;;;;;;5036300;28;20524;-80
2022/02/03 11:17:50;;;;;;;1.17;0.60;;;11.00;99.60;;;;;;5037492;28;20771;-80
2022/02/03 11:20:19;;;;;;;0.73;0.73;;;11.10;99.40;;;;;;5045841;28;20029;-79
2022/02/03 11:23:06;;;;;;;0.63;0.63;;;11.30;99.90;;;;;;5046251;28;20032;-83
2022/02/03 12:00:49;;;;;;;0.57;0.45;;;11.10;90.50;;;;;;5029278;28;20029;-81
2022/02/03 12:18:41;;;;;;;0.80;0.50;;;11.50;89.50;;;;;;5029517;28;20080;-80
2022/02/03 12:23:58;;;;;;;0.68;0.55;;;11.50;89.50;;;;;;5047127;28;20081;-82
2022/02/03 12:26:27;;;;;;;0.50;0.47;;;11.60;90.10;;;;;;5048191;28;20070;-81
2022/02/03 12:28:58;;;;;;;0.50;0.50;;;11.60;90.10;;;;;;5026826;28;20049;-81
2022/02/03 12:31:51;;;;;;;0.43;0.40;;;11.60;89.70;;;;;;5022586;28;20037;-79
2022/02/03 12:39:56;;;;;;;0.47;0.47;;;11.50;88.60;;;;;;5021853;28;20077;-79
2022/02/03 12:44:51;;;;;;;0.40;0.40;;;11.60;87.60;;;;;;5031925;28;20026;-78
2022/02/03 12:47:17;;;;;;;0.30;0.30;;;11.70;87.20;;;;;;5046504;28;20013;-78
2022/02/03 12:49:45;;;;;;;0.30;0.30;;;11.80;87.20;;;;;;5043159;28;20060;-79
2022/02/03 12:52:26;;;;;;;3.17;0.47;;;11.80;86.70;;;;;;5027762;28;20028;-80
2022/02/03 12:54:52;;;;;;;0.50;0.50;;;11.90;86.10;;;;;;5020718;28;20026;-78
2022/02/03 12:57:48;;;;;;;0.95;0.40;;;11.90;85.20;;;;;;5025684;28;20197;-76
2022/02/03 13:00:33;;;;;;;0.30;0.25;;;11.80;85.10;;;;;;5006905;28;20046;-77
2022/02/03 13:03:01;;;;;;;0.60;0.40;;;11.90;84.70;;;;;;5030184;28;20029;-77
2022/02/03 13:05:32;;;;;;;1.10;0.65;;;11.90;84.40;;;;;;5027018;28;20050;-78
2022/02/03 13:07:59;;;;;;;1.00;0.50;;;11.90;84.50;;;;;;5017533;28;20033;-78
2022/02/03 13:10:38;;;;;;;0.60;0.45;;;11.80;84.40;;;;;;5015391;28;20030;-79
2022/02/03 13:13:23;;;;;;;0.70;0.43;;;11.80;84.40;;;;;;5015343;28;20026;-78
2022/02/03 13:15:49;;;;;;;0.52;0.30;;;11.70;85.30;;;;;;5015371;28;20022;-77
2022/02/03 13:18:27;;;;;;;0.80;0.38;;;11.70;85.60;;;;;;5014089;28;20025;-77
2022/02/03 13:21:20;;;;;;;0.30;0.30;;;11.60;85.50;;;;;;5015248;28;20018;-78
2022/02/03 13:23:46;;;;;;;0.65;0.20;;;11.50;86.30;;;;;;5015506;28;20263;-78
2022/02/03 13:26:16;;;;;;;0.40;0.32;;;11.60;86.70;;;;;;5015764;28;20474;-77
2022/02/03 13:29:05;;;;;;;1.45;0.43;;;11.70;86.70;;;;;;5016278;28;20114;-78
2022/02/03 13:34:37;;;;;;;0.60;0.40;;;11.50;86.60;;;;;;5012259;28;20038;-80
2022/02/03 13:40:15;;;;;;;1.40;0.40;;;11.40;87.80;;;;;;5013217;28;20040;-80
2022/02/03 13:42:52;;;;;;;0.52;0.52;;;11.50;88.50;;;;;;5021718;28;20040;-78
2022/02/03 13:45:21;;;;;;;1.63;1.30;;;11.60;88.20;;;;;;5015352;28;20021;-78
2022/02/03 13:47:57;;;;;;;1.48;1.10;;;11.30;89.80;;;;;;5012861;28;20083;-80
2022/02/03 13:50:28;;;;;;;1.55;1.08;;;11.00;90.90;;;;;;5023909;28;20022;-79
2022/02/03 13:53:02;;;;;;;3.33;1.30;;;10.90;91.70;;;;;;5031476;28;20030;-78
2022/02/03 14:28:36;;;;;;;3.65;1.40;;;10.40;93.00;;;;;;5027298;28;20049;-80
2022/02/03 14:31:05;;;;;;;1.85;1.40;;;10.40;92.90;;;;;;5030200;28;20022;-79
2022/02/03 14:33:35;;;;;;;1.10;1.00;;;10.40;92.80;;;;;;5039317;28;20014;-76
2022/02/03 14:36:07;;;;;;;1.95;1.02;;;10.40;92.30;;;;;;5039882;28;20032;-77
2022/02/03 14:38:41;;;;;;;0.82;0.80;;;10.30;91.70;;;;;;5038502;28;20033;-79
2022/02/03 14:41:23;;;;;;;3.03;0.90;;;10.30;91.70;;;;;;5023833;28;20018;-78
2022/02/03 14:43:49;;;;;;;1.30;0.98;;;10.30;91.50;;;;;;5025720;28;20030;-79
2022/02/03 14:46:16;;;;;;;3.55;1.00;;;10.30;91.40;;;;;;5018627;28;20030;-79
2022/02/03 14:48:45;;;;;;;1.73;1.00;;;10.30;91.10;;;;;;5018643;28;20029;-79
2022/02/03 14:51:17;;;;;;;1.27;0.77;;;10.20;90.40;;;;;;5018107;28;20587;-79
2022/02/03 14:53:53;;;;;;;0.90;0.70;;;10.20;89.90;;;;;;5018992;28;20033;-79
2022/02/03 14:59:04;;;;;;;0.68;0.50;;;10.00;89.30;;;;;;5043530;22;20084;31
2022/02/03 15:01:33;;;;;;;0.50;0.50;;;9.90;89.60;;;;;;5045054;28;20053;-80
2022/02/03 15:04:05;;;;;;;1.38;0.70;;;9.90;89.30;;;;;;5046276;28;20025;-82
2022/02/03 15:06:52;;;;;;;3.40;1.10;;;9.80;89.40;;;;;;5046213;28;20072;-81
2022/02/03 15:14:10;;;;;;;1.10;1.02;;;9.60;90.00;;;;;;5061112;28;20033;-81
2022/02/03 15:16:35;;;;;;;2.65;1.10;;;9.40;90.00;;;;;;5071650;28;20027;-80
2022/02/03 15:19:01;;;;;;;1.55;1.10;;;9.40;90.20;;;;;;5070233;28;20053;-80
2022/02/03 15:21:27;;;;;;;1.48;0.98;;;9.30;90.40;;;;;;5070912;28;20021;-82
2022/02/03 15:23:53;;;;;;;1.08;0.98;;;9.20;90.70;;;;;;5069086;28;20021;-81
2022/02/03 15:26:21;;;;;;;1.50;1.00;;;9.20;90.90;;;;;;5068062;28;20389;-81
2022/02/03 15:28:47;;;;;;;2.88;1.08;;;9.10;91.00;;;;;;5067222;28;20028;-81
2022/02/03 15:31:13;;;;;;;2.85;0.95;;;9.10;91.40;;;;;;5069686;28;20033;-81
2022/02/03 15:33:43;;;;;;;3.28;1.30;;;9.10;91.30;;;;;;5066920;28;20054;-81
2022/02/03 15:36:12;;;;;;;1.40;1.30;;;9.10;91.80;;;;;;5064978;28;20025;-80
2022/02/03 15:38:45;;;;;;;0.88;0.75;;;9.00;91.70;;;;;;5064495;28;20032;-80
2022/02/03 15:41:19;;;;;;;;;;;9.00;92.00;;;;;;5066822;28;20018;-81
2022/02/03 15:43:45;;;;;;;1.85;0.77;;;8.90;92.20;;;;;;5068807;28;19991;-80
2022/02/03 15:46:13;;;;;;;1.85;1.20;;;8.80;92.50;;;;;;5069429;28;20032;-81
2022/02/03 15:48:50;;;;;;;1.42;1.25;;;8.80;92.80;;;;;;5069151;28;20017;-81
2022/02/03 15:56:11;;;;;;;2.08;1.23;;;8.70;93.00;;;;;;5067980;28;20035;-80
2022/02/03 16:16:43;;;;;;;2.83;2.00;;;8.30;94.90;;;;;;5040191;28;20033;-82
2022/02/03 16:18:20;;;;;;;3.58;1.80;;;8.20;95.10;;;;;;5055378;28;20028;-80
2022/02/03 16:20:57;;;;;;;4.18;2.00;;;8.10;95.20;;;;;;5054241;28;20047;-83
2022/02/03 16:52:50;;;;;;;1.40;1.08;;;7.70;97.40;;;;;;5045296;28;20030;-83
2022/02/03 16:55:20;;;;;;;1.30;1.15;;;7.70;97.60;;;;;;5047460;28;20021;-82
2022/02/03 16:57:51;;;;;;;3.17;1.30;;;7.70;97.70;;;;;;5050506;28;20089;-82
2022/02/03 17:00:19;;;;;;;6.70;2.22;;;7.70;97.80;;;;;;5050003;28;20060;-82
2022/02/03 17:02:45;;;;;;;2.97;1.65;;;7.70;97.80;;;;;;5047836;28;20021;-80
2022/02/03 17:05:11;;;;;;;3.05;1.55;;;7.70;97.80;;;;;;5054592;28;20032;-82
2022/02/03 17:07:37;;;;;;;2.33;1.60;;;7.70;97.90;;;;;;5057265;28;20025;-83
2022/02/03 17:10:05;;;;;;;3.25;1.90;;;7.70;98.00;;;;;;5057005;28;20037;-81
2022/02/03 17:12:30;;;;;;;2.08;1.65;;;7.60;98.00;;;;;;5062730;28;20036;-80
2022/02/03 17:14:56;;;;;;;3.05;2.00;;;7.60;98.00;;;;;;5070490;28;20029;-82
2022/02/03 17:17:22;;;;;;;3.08;1.85;;;7.60;98.20;;;;;;5063393;28;20040;-81
2022/02/03 17:19:49;;;;;;;3.80;2.33;;;7.60;98.30;;;;;;5070427;28;20451;-82
2022/02/03 17:22:17;;;;;;;3.45;1.92;;;7.50;98.50;;;;;;5071913;28;20032;-81
2022/02/03 17:24:52;;;;;;;2.17;1.33;;;7.50;98.60;;;;;;5070284;28;20013;-81
2022/02/03 17:27:27;;;;;;;3.33;2.28;;;7.50;98.60;;;;;;5070371;28;20088;-81
2022/02/03 18:06:10;;;;;;;5.20;3.22;;;7.30;99.80;;;;;;5035493;28;20076;-81
2022/02/03 18:11:04;;;;;;;4.68;3.25;;;7.20;99.90;;;;;;5031610;28;20030;-80
2022/02/03 18:46:25;;;;;;;4.47;3.70;;;6.80;99.90;;;;;;5052162;28;20051;-82
2022/02/03 18:51:14;;;;;;;5.93;3.92;;;6.80;99.90;;;;;;5046179;28;20030;-82
2022/02/03 18:56:33;;;;;;;6.25;3.72;;;6.90;99.90;;;;;;5045585;28;20025;-82
2022/02/03 18:59:13;;;;;;;4.65;3.35;;;6.90;99.90;;;;;;5050274;28;20038;-82
2022/02/03 19:10:25;;;;;;;4.30;2.92;;;6.70;99.90;;;;;;5050584;28;20144;-82
2022/02/03 19:28:36;;;;;;;4.55;2.92;;;6.60;99.90;;;;;;5050434;28;20080;-82
2022/02/03 20:03:53;;;;;;;7.40;4.47;;;6.70;99.90;;;;;;5045841;28;20029;-80
2022/02/03 20:11:34;;;;;;;8.95;5.20;;;6.70;99.90;;;;;;5048469;28;20052;-82
2022/02/03 20:14:00;;;;;;;8.00;4.70;;;6.60;99.90;;;;;;5052210;28;20029;-82
2022/02/03 20:16:26;;;;;;;6.75;4.10;;;6.60;99.90;;;;;;5052080;28;20030;-82
2022/02/03 20:18:52;;;;;;;6.32;4.45;;;6.60;99.90;;;;;;5052182;28;20060;-82
2022/02/03 20:21:19;;;;;;;8.20;3.78;;;6.50;99.90;;;;;;5047025;28;20044;-82
2022/02/03 20:23:46;;;;;;;6.28;3.78;;;6.50;99.90;;;;;;5039326;28;20021;-82
2022/02/03 20:26:15;;;;;;;6.75;3.83;;;6.40;99.90;;;;;;5030491;28;20022;-81
2022/02/03 20:28:41;;;;;;;4.93;3.15;;;6.40;99.90;;;;;;5028657;28;20040;-83
2022/02/03 20:31:06;;;;;;;5.65;3.42;;;6.40;99.90;;;;;;5031470;28;20036;-83
2022/02/03 20:33:32;;;;;;;5.38;2.97;;;6.30;99.90;;;;;;5032086;28;20025;-82
2022/02/03 20:35:58;;;;;;;5.68;3.47;;;6.30;99.90;;;;;;5032432;28;20018;-82
2022/02/03 20:38:24;;;;;;;5.68;4.07;;;6.20;99.90;;;;;;5031950;28;20044;-81
2022/02/03 20:40:50;;;;;;;5.70;3.60;;;6.20;99.90;;;;;;5049966;28;20018;-82
2022/02/03 20:43:16;;;;;;;5.57;3.38;;;6.10;99.90;;;;;;5051961;28;20025;-83
2022/02/03 20:45:44;;;;;;;5.30;3.10;;;6.10;99.90;;;;;;5049000;28;20052;-82
2022/02/03 20:48:10;;;;;;;4.47;2.70;;;6.10;99.90;;;;;;5046000;28;20083;-83
2022/02/03 20:50:37;;;;;;;4.93;3.20;;;6.00;99.90;;;;;;5033574;28;20052;-81
2022/02/03 20:53:04;;;;;;;5.75;3.47;;;6.00;99.90;;;;;;5041869;28;20028;-82
2022/02/03 20:55:30;;;;;;;5.57;3.30;;;6.00;99.90;;;;;;5045043;28;20030;-84
2022/02/03 20:57:56;;;;;;;6.32;3.95;;;6.00;99.90;;;;;;5045898;28;20048;-81
2022/02/03 21:00:29;;;;;;;6.38;3.33;;;6.00;99.90;;;;;;5045512;28;20025;-84
2022/02/03 21:03:03;;;;;;;6.32;3.38;;;6.00;99.90;;;;;;5046650;28;20049;-84
2022/02/03 21:05:29;;;;;;;5.40;3.30;;;6.00;99.90;;;;;;5047775;28;20017;-83
2022/02/03 21:07:55;;;;;;;6.80;4.18;;;6.00;99.90;;;;;;5052648;28;20040;-84
2022/02/03 21:10:27;;;;;;;5.22;3.72;;;6.00;99.90;;;;;;5053134;28;20053;-84
2022/02/03 21:12:55;;;;;;;5.55;3.65;;;6.00;99.90;;;;;;5055945;28;20009;-85
2022/02/03 21:15:24;;;;;;;5.57;3.00;;;6.00;99.90;;;;;;5052036;28;20048;-86
2022/02/03 21:17:52;;;;;;;5.00;3.35;;;6.00;99.90;;;;;;5048772;28;20136;-83
2022/02/03 21:20:20;;;;;;;4.75;3.30;;;5.90;99.90;;;;;;5041164;28;20032;-85
2022/02/03 21:22:46;;;;;;;6.60;3.92;;;5.80;99.90;;;;;;5030779;28;20025;-85
2022/02/03 21:25:27;;;;;;;5.82;3.92;;;5.80;99.90;;;;;;5028706;28;20041;-84
2022/02/03 21:27:55;;;;;;;6.10;4.45;;;5.70;99.90;;;;;;5031634;28;20046;-84
2022/02/03 21:30:23;;;;;;;6.72;4.15;;;5.70;99.90;;;;;;5029912;28;20026;-85
2022/02/03 21:32:49;;;;;;;8.70;5.30;;;5.70;99.90;;;;;;5025788;28;20052;-83
2022/02/03 21:35:18;;;;;;;11.77;5.18;;;5.70;99.90;;;;;;5026069;28;20483;-85
2022/02/03 21:37:45;;;;;;;7.70;4.00;;;5.60;99.90;;;;;;5026161;28;20058;-85
2022/02/03 21:40:11;;;;;;;8.48;4.40;;;5.60;99.90;;;;;;5026847;28;20045;-86
2022/02/03 21:42:37;;;;;;;6.53;3.78;;;5.60;99.90;;;;;;5027208;28;20026;-84
2022/02/03 21:45:04;;;;;;;6.25;3.63;;;5.50;99.90;;;;;;5025716;28;20113;-85
2022/02/03 21:47:30;;;;;;;4.43;3.08;;;5.50;99.90;;;;;;5033681;28;20016;-86
2022/02/03 21:49:59;;;;;;;6.55;4.15;;;5.50;99.90;;;;;;5047652;28;20032;-86
2022/02/03 21:52:33;;;;;;;7.28;4.18;;;5.40;99.90;;;;;;5049253;28;20049;-85
2022/02/03 21:55:00;;;;;;;5.65;3.50;;;5.40;99.90;;;;;;5036525;28;20058;-85
2022/02/03 21:57:26;;;;;;;5.35;3.85;;;5.40;99.90;;;;;;5029133;28;20032;-84
2022/02/03 21:59:52;;;;;;;6.13;3.58;;;5.40;99.90;;;;;;5026968;28;20033;-85
2022/02/03 22:02:19;;;;;;;5.13;3.00;;;5.30;99.90;;;;;;5027428;28;20022;-85
2022/02/03 22:04:45;;;;;;;4.72;3.13;;;5.40;99.90;;;;;;5031679;28;20022;-86
2022/02/03 22:07:11;;;;;;;5.32;3.10;;;5.40;99.90;;;;;;5028248;28;20041;-83
2022/02/03 22:09:38;;;;;;;3.85;2.65;;;5.40;99.90;;;;;;5026727;28;20037;-84
2022/02/03 22:12:05;;;;;;;4.75;3.05;;;5.40;99.90;;;;;;5026301;28;20022;-85
2022/02/03 22:14:32;;;;;;;5.45;3.17;;;5.40;99.90;;;;;;5027240;28;20025;-85
2022/02/03 22:16:59;;;;;;;3.78;2.40;;;5.40;99.90;;;;;;5024683;28;20048;-85
2022/02/03 22:19:27;;;;;;;3.13;2.08;;;5.40;99.90;;;;;;5028243;28;20052;-84
2022/02/03 22:24:44;;;;;;;3.22;2.50;;;5.30;99.90;;;;;;5043592;28;20037;-85
2022/02/03 22:43:32;;;;;;;3.85;1.70;;;4.90;99.90;;;;;;5041876;28;20097;-83
2022/02/03 22:46:07;;;;;;;3.80;2.22;;;4.80;99.90;;;;;;5041285;28;20056;-83
2022/02/03 22:48:34;;;;;;;2.55;1.75;;;4.80;99.90;;;;;;5041510;28;20024;-84
2022/02/03 22:51:01;;;;;;;3.25;2.17;;;4.70;99.90;;;;;;5042185;28;20025;-83
2022/02/03 22:53:32;;;;;;;4.03;2.38;;;4.60;99.90;;;;;;5030727;28;20032;-85
2022/02/03 22:56:07;;;;;;;3.00;2.03;;;4.60;99.90;;;;;;5023144;28;20018;-84
2022/02/03 23:01:08;;;;;;;2.30;1.85;;;4.50;99.90;;;;;;5033530;28;20074;-85
2022/02/03 23:03:35;;;;;;;3.42;1.90;;;4.50;99.90;;;;;;5025955;28;20168;-85
2022/02/03 23:06:02;;;;;;;2.70;1.98;;;4.50;99.90;;;;;;5028674;28;20093;-84
2022/02/03 23:24:05;;;;;;;3.08;2.00;;;4.30;99.90;;;;;;5040228;28;20029;-83
2022/02/03 23:26:31;;;;;;;4.05;2.33;;;4.40;99.90;;;;;;5038256;28;20026;-84
2022/02/03 23:29:02;;;;;;;2.90;1.85;;;4.40;99.90;;;;;;5041942;28;20089;-84
2022/02/03 23:31:33;;;;;;;2.58;1.67;;;4.50;99.90;;;;;;5049246;28;20029;-84
2022/02/03 23:34:00;;;;;;;3.47;2.13;;;4.50;99.90;;;;;;5048783;28;20071;-84
2022/02/03 23:36:25;;;;;;;3.95;2.60;;;4.60;99.90;;;;;;5040741;28;20049;-85
2022/02/03 23:39:10;;;;;;;6.45;3.08;;;4.60;99.90;;;;;;5038665;28;20052;-85
2022/02/03 23:44:17;;;;;;;4.22;2.97;;;4.70;99.90;;;;;;5051077;28;20083;-84
